Time;durP1;ratioP1;P1;durP2;ratioP2;P2;SDS_P1;SDS_P2;PMS_P1;PMS_P2;Temp;Humidity;BMP_temperature;BMP_pressure;BME280_temperature;BME280_humidity;BME280_pressure;Samples;Min_cycle;Max_cycle;Signal;HPM_P1;HPM_P2
2021/12/26 00:01:11;;;;;;;6.30;2.35;;;25.30;90.80;;;;;;5075387;28;20024;-58
2021/12/26 00:03:40;;;;;;;4.72;1.95;;;25.40;90.70;;;;;;5075447;28;20035;-57
2021/12/26 00:06:12;;;;;;;7.07;2.08;;;25.40;90.70;;;;;;5074510;28;20025;-54
2021/12/26 00:08:40;;;;;;;;;;;25.50;90.70;;;;;;5075740;28;20475;-52
2021/12/26 00:11:08;;;;;;;5.82;2.35;;;25.50;90.70;;;;;;5075160;28;19905;-58
2021/12/26 00:13:37;;;;;;;6.25;2.25;;;25.60;90.50;;;;;;5075202;28;20033;-53
2021/12/26 00:16:06;;;;;;;5.03;1.98;;;25.60;90.40;;;;;;5074880;28;20028;-54
2021/12/26 00:18:34;;;;;;;6.22;2.20;;;25.70;90.30;;;;;;5075264;28;20032;-59
2021/12/26 00:21:02;;;;;;;5.18;1.92;;;25.70;90.20;;;;;;5075559;28;20036;-57
2021/12/26 00:23:31;;;;;;;5.07;2.20;;;25.80;90.20;;;;;;5074511;28;20483;-55
2021/12/26 00:25:58;;;;;;;5.70;2.28;;;25.90;90.00;;;;;;5074711;28;20064;-53
2021/12/26 00:28:26;;;;;;;4.90;2.20;;;25.90;89.70;;;;;;5074782;28;20483;-57
2021/12/26 00:30:54;;;;;;;5.95;2.20;;;26.00;89.70;;;;;;5074853;28;20024;-58
2021/12/26 00:33:22;;;;;;;5.90;1.95;;;26.00;89.60;;;;;;5073406;28;20383;-55
2021/12/26 00:35:54;;;;;;;5.07;2.28;;;26.10;89.30;;;;;;5073443;28;20024;-54
2021/12/26 00:38:21;;;;;;;6.43;2.53;;;26.10;89.10;;;;;;5075074;28;20092;-55
2021/12/26 00:40:50;;;;;;;7.88;2.20;;;26.20;89.00;;;;;;5074736;28;20494;-53
2021/12/26 00:43:18;;;;;;;5.35;2.33;;;26.20;88.90;;;;;;5074846;28;20033;-55
2021/12/26 00:45:45;;;;;;;4.65;2.20;;;26.30;88.80;;;;;;5074501;28;20548;-51
2021/12/26 00:48:13;;;;;;;4.57;1.73;;;26.30;88.60;;;;;;5074150;28;20040;-58
2021/12/26 00:50:42;;;;;;;5.43;2.47;;;26.30;88.30;;;;;;5074786;28;20044;-61
2021/12/26 00:53:10;;;;;;;4.68;1.98;;;26.40;88.10;;;;;;5074376;28;20036;-59
2021/12/26 00:55:38;;;;;;;2.60;1.63;;;26.50;88.00;;;;;;5074831;28;20477;-59
2021/12/26 00:58:07;;;;;;;5.03;1.65;;;26.60;87.90;;;;;;5073970;28;20069;-58
2021/12/26 01:00:41;;;;;;;5.50;2.05;;;26.60;87.90;;;;;;5074553;28;20025;-57
2021/12/26 01:03:11;;;;;;;4.38;1.92;;;26.60;87.80;;;;;;5074525;28;20028;-52
2021/12/26 01:05:41;;;;;;;6.40;2.20;;;26.60;87.80;;;;;;5074372;28;20169;-53
2021/12/26 01:08:13;;;;;;;6.97;2.10;;;26.70;87.70;;;;;;5074272;28;20032;-62
2021/12/26 01:10:50;;;;;;;6.38;2.00;;;26.80;87.20;;;;;;5074352;28;20024;-56
2021/12/26 01:13:34;;;;;;;4.53;2.08;;;26.90;87.00;;;;;;5072655;28;20028;-58
2021/12/26 01:16:09;;;;;;;4.13;1.85;;;26.90;86.20;;;;;;5073762;28;20383;-58
2021/12/26 01:18:40;;;;;;;4.55;1.90;;;27.00;86.40;;;;;;5074044;28;20020;-55
2021/12/26 01:23:47;;;;;;;8.18;2.63;;;27.10;86.10;;;;;;5073911;28;20328;-59
2021/12/26 01:26:14;;;;;;;5.60;2.08;;;27.10;85.90;;;;;;5073136;28;20027;-56
2021/12/26 01:28:42;;;;;;;5.35;2.28;;;27.10;85.50;;;;;;5073787;28;20037;-59
2021/12/26 01:31:10;;;;;;;7.32;1.95;;;27.10;85.90;;;;;;5073812;28;20459;-53
2021/12/26 01:33:38;;;;;;;6.60;2.55;;;27.10;85.90;;;;;;5073468;28;20036;-56
2021/12/26 01:36:06;;;;;;;3.38;1.60;;;27.10;85.60;;;;;;5071854;28;20021;-57
2021/12/26 01:38:33;;;;;;;4.40;1.80;;;27.10;85.60;;;;;;5072823;28;20493;-54
2021/12/26 01:41:08;;;;;;;5.88;2.35;;;27.10;85.70;;;;;;5073713;28;20460;-54
2021/12/26 01:43:36;;;;;;;8.27;2.47;;;27.10;85.70;;;;;;5073638;28;20035;-57
2021/12/26 01:46:04;;;;;;;3.20;1.80;;;27.20;85.60;;;;;;5073359;28;20029;-59
2021/12/26 01:48:32;;;;;;;5.53;1.85;;;27.20;85.50;;;;;;5073319;28;20040;-58
2021/12/26 01:50:59;;;;;;;4.07;2.10;;;27.20;85.50;;;;;;5073424;28;20087;-52
2021/12/26 01:53:36;;;;;;;4.85;2.20;;;27.20;85.80;;;;;;5073048;28;20055;-50
2021/12/26 01:56:06;;;;;;;3.95;1.80;;;27.20;85.50;;;;;;5072503;28;20028;-58
2021/12/26 01:58:35;;;;;;;3.40;1.13;;;27.20;85.50;;;;;;5073169;28;20552;-57
2021/12/26 02:01:08;;;;;;;3.85;1.80;;;27.20;86.10;;;;;;5072329;28;20111;-53
2021/12/26 02:03:37;;;;;;;4.95;2.10;;;27.10;86.40;;;;;;5073206;28;20029;-52
2021/12/26 02:06:06;;;;;;;5.13;2.20;;;27.00;86.40;;;;;;5072491;28;20029;-60
2021/12/26 02:08:34;;;;;;;4.45;1.75;;;27.10;86.50;;;;;;5073018;28;20060;-57
2021/12/26 02:11:02;;;;;;;3.35;1.60;;;27.10;86.60;;;;;;5073420;28;20051;-58
2021/12/26 02:13:31;;;;;;;4.32;1.90;;;27.00;86.40;;;;;;5072676;28;20514;-57
2021/12/26 02:15:58;;;;;;;4.15;1.90;;;27.00;86.40;;;;;;5073002;28;20133;-57
2021/12/26 02:18:26;;;;;;;4.20;1.65;;;27.00;86.60;;;;;;5073045;28;20020;-55
2021/12/26 02:21:11;;;;;;;3.45;1.70;;;27.00;86.90;;;;;;5073158;28;20025;-55
2021/12/26 02:24:00;;;;;;;4.68;2.08;;;26.90;87.00;;;;;;5073043;28;20084;-58
2021/12/26 02:29:13;;;;;;;5.22;1.80;;;26.90;87.20;;;;;;5073455;28;20498;-57
2021/12/26 02:31:40;;;;;;;2.58;1.55;;;26.80;87.40;;;;;;5072770;28;20051;-59
2021/12/26 02:34:08;;;;;;;4.47;1.73;;;26.80;87.30;;;;;;5072660;28;20029;-57
2021/12/26 02:36:35;;;;;;;4.20;1.60;;;26.80;87.50;;;;;;5073020;28;20463;-55
2021/12/26 02:39:03;;;;;;;4.75;1.52;;;26.80;88.10;;;;;;5073164;28;20024;-57
2021/12/26 02:41:31;;;;;;;4.18;2.00;;;26.80;88.20;;;;;;5072866;28;20024;-56
2021/12/26 02:43:59;;;;;;;6.65;2.05;;;26.80;88.10;;;;;;5072945;28;20035;-56
2021/12/26 02:46:27;;;;;;;5.38;1.65;;;26.90;87.70;;;;;;5071449;28;20032;-59
2021/12/26 02:48:55;;;;;;;5.97;1.80;;;27.00;87.70;;;;;;5073076;28;20071;-55
2021/12/26 02:51:22;;;;;;;4.10;2.00;;;27.00;87.50;;;;;;5074068;28;20032;-54
2021/12/26 02:53:50;;;;;;;4.10;1.60;;;27.00;87.20;;;;;;5075215;28;20048;-50
2021/12/26 02:56:19;;;;;;;6.53;2.50;;;27.00;87.30;;;;;;5076853;28;20332;-57
2021/12/26 02:58:46;;;;;;;6.40;1.95;;;27.10;87.10;;;;;;5076710;28;20478;-59
2021/12/26 03:01:17;;;;;;;5.85;2.40;;;27.10;87.20;;;;;;5076646;28;20035;-58
2021/12/26 03:03:44;;;;;;;6.23;1.73;;;27.10;86.80;;;;;;5075696;28;20099;-49
2021/12/26 03:06:27;;;;;;;5.38;1.80;;;27.20;86.90;;;;;;5075790;28;20269;-50
2021/12/26 03:08:55;;;;;;;3.90;1.67;;;27.20;86.80;;;;;;5075395;28;20120;-58
2021/12/26 03:11:23;;;;;;;5.07;1.90;;;27.20;86.70;;;;;;5076459;28;20032;-57
2021/12/26 03:13:51;;;;;;;5.35;1.60;;;27.20;86.70;;;;;;5076076;28;20035;-55
2021/12/26 03:16:18;;;;;;;3.75;1.83;;;27.20;86.60;;;;;;5076268;28;20134;-55
2021/12/26 03:18:46;;;;;;;4.43;1.80;;;27.20;86.60;;;;;;5076741;28;20085;-60
2021/12/26 03:21:13;;;;;;;6.10;2.03;;;27.20;86.70;;;;;;5075134;28;20525;-56
2021/12/26 03:23:40;;;;;;;6.35;2.08;;;27.20;87.00;;;;;;5076262;28;20107;-58
2021/12/26 03:26:08;;;;;;;2.67;1.48;;;27.10;87.10;;;;;;5076219;28;20028;-53
2021/12/26 03:28:36;;;;;;;3.50;1.88;;;27.10;87.30;;;;;;5076147;28;20033;-60
2021/12/26 03:31:04;;;;;;;5.15;2.03;;;27.10;87.30;;;;;;5076430;28;20126;-59
2021/12/26 03:33:32;;;;;;;3.80;1.63;;;27.00;87.60;;;;;;5076435;28;20024;-60
2021/12/26 03:35:59;;;;;;;4.70;1.60;;;27.00;87.60;;;;;;5076083;28;20108;-60
2021/12/26 03:38:29;;;;;;;8.48;2.15;;;26.90;87.90;;;;;;5075940;28;20035;-57
2021/12/26 03:40:57;;;;;;;10.50;2.15;;;26.90;87.90;;;;;;5075689;28;20036;-59
2021/12/26 03:43:30;;;;;;;3.28;1.52;;;26.90;88.10;;;;;;5076132;28;20021;-59
2021/12/26 03:45:59;;;;;;;3.90;1.92;;;26.80;88.20;;;;;;5075953;28;20020;-57
2021/12/26 03:48:27;;;;;;;6.63;2.03;;;26.80;88.40;;;;;;5074504;28;20088;-57
2021/12/26 03:50:58;;;;;;;4.82;1.85;;;26.80;88.60;;;;;;5075888;28;20017;-58
2021/12/26 03:53:26;;;;;;;7.00;2.08;;;26.70;88.30;;;;;;5075182;28;20070;-57
2021/12/26 03:55:54;;;;;;;7.18;1.95;;;26.70;88.80;;;;;;5075222;28;20036;-53
2021/12/26 03:58:21;;;;;;;5.22;1.95;;;26.70;89.00;;;;;;5075503;28;20069;-51
2021/12/26 04:00:54;;;;;;;5.63;2.17;;;26.60;89.00;;;;;;5075471;28;20017;-54
2021/12/26 04:03:21;;;;;;;3.67;1.77;;;26.60;89.10;;;;;;5074943;28;20128;-57
2021/12/26 04:05:49;;;;;;;4.93;1.55;;;26.60;89.40;;;;;;5075111;28;20155;-59
2021/12/26 04:08:16;;;;;;;6.35;1.88;;;26.50;89.60;;;;;;5073962;28;20064;-57
2021/12/26 04:10:44;;;;;;;6.78;2.33;;;26.50;89.50;;;;;;5075453;28;20025;-56
2021/12/26 04:13:11;;;;;;;3.95;2.00;;;26.50;89.90;;;;;;5075804;28;20098;-61
2021/12/26 04:15:39;;;;;;;4.88;1.90;;;26.50;89.80;;;;;;5075085;28;20490;-55
2021/12/26 04:18:06;;;;;;;4.72;1.90;;;26.50;89.70;;;;;;5075255;28;20371;-57
2021/12/26 04:20:34;;;;;;;5.38;2.05;;;26.40;89.90;;;;;;5075171;28;20500;-54
2021/12/26 04:23:01;;;;;;;4.22;2.08;;;26.40;90.00;;;;;;5074007;28;20025;-60
2021/12/26 04:25:29;;;;;;;5.78;2.22;;;26.40;90.10;;;;;;5075206;28;20020;-55
2021/12/26 04:27:57;;;;;;;3.05;1.48;;;26.40;90.20;;;;;;5074943;28;20033;-59
2021/12/26 04:30:27;;;;;;;3.85;2.05;;;26.30;90.20;;;;;;5075232;28;20025;-50
2021/12/26 04:32:55;;;;;;;4.75;1.80;;;26.30;90.30;;;;;;5074885;28;20017;-58
2021/12/26 04:35:22;;;;;;;6.72;1.95;;;26.30;90.40;;;;;;5073824;28;20024;-52
2021/12/26 04:37:50;;;;;;;3.70;1.73;;;26.30;90.40;;;;;;5074283;28;20368;-58
2021/12/26 04:40:18;;;;;;;4.55;1.55;;;26.30;90.40;;;;;;5074584;28;20466;-55
2021/12/26 04:42:49;;;;;;;7.38;2.35;;;26.30;90.40;;;;;;5074848;28;20032;-58
2021/12/26 04:45:17;;;;;;;4.97;2.03;;;26.30;90.50;;;;;;5074590;28;20024;-52
2021/12/26 04:47:46;;;;;;;8.52;3.30;;;26.30;90.50;;;;;;5074817;28;20044;-54
2021/12/26 04:50:16;;;;;;;4.05;1.83;;;26.30;90.50;;;;;;5074481;28;20020;-59
2021/12/26 04:52:45;;;;;;;5.50;1.90;;;26.30;90.50;;;;;;5074476;28;20025;-58
2021/12/26 04:55:16;;;;;;;8.80;2.72;;;26.30;90.50;;;;;;5074242;28;20131;-58
2021/12/26 04:57:43;;;;;;;7.03;2.75;;;26.40;90.40;;;;;;5074687;28;20028;-59
2021/12/26 05:00:14;;;;;;;9.38;2.50;;;26.40;90.40;;;;;;5072962;28;20309;-57
2021/12/26 05:02:42;;;;;;;9.68;2.70;;;26.30;90.40;;;;;;5074245;28;20017;-53
2021/12/26 05:05:11;;;;;;;3.83;1.92;;;26.30;90.40;;;;;;5074561;28;20478;-54
2021/12/26 05:07:39;;;;;;;7.22;1.80;;;26.30;90.40;;;;;;5074278;28;20024;-57
2021/12/26 05:10:08;;;;;;;5.03;2.15;;;26.30;90.40;;;;;;5074316;28;20036;-54
2021/12/26 05:12:36;;;;;;;6.93;2.45;;;26.30;90.50;;;;;;5074148;28;20030;-53
2021/12/26 05:15:05;;;;;;;3.47;1.70;;;26.30;90.50;;;;;;5073179;28;20024;-56
2021/12/26 05:17:32;;;;;;;5.43;2.22;;;26.30;90.50;;;;;;5074232;28;20032;-57
2021/12/26 05:20:00;;;;;;;7.95;1.98;;;26.30;90.50;;;;;;5073445;28;20467;-54
2021/12/26 05:22:27;;;;;;;6.45;2.80;;;26.20;90.50;;;;;;5073728;28;20486;-53
2021/12/26 05:24:58;;;;;;;5.30;1.95;;;26.20;90.60;;;;;;5073793;28;20070;-57
2021/12/26 05:27:26;;;;;;;5.65;2.30;;;26.20;90.60;;;;;;5073570;28;20348;-56
2021/12/26 05:29:53;;;;;;;5.82;2.45;;;26.20;90.60;;;;;;5072255;28;20110;-59
2021/12/26 05:32:21;;;;;;;7.00;2.28;;;26.20;90.90;;;;;;5074088;28;20028;-58
2021/12/26 05:34:48;;;;;;;6.50;2.30;;;26.10;90.60;;;;;;5073482;28;20352;-54
2021/12/26 05:37:16;;;;;;;6.57;2.47;;;26.20;90.70;;;;;;5073382;28;20026;-59
2021/12/26 05:39:49;;;;;;;7.95;2.85;;;26.10;90.70;;;;;;5074139;28;20387;-55
2021/12/26 05:42:17;;;;;;;8.52;2.80;;;26.10;90.70;;;;;;5073659;28;20355;-60
2021/12/26 05:44:50;;;;;;;7.85;2.80;;;26.10;90.80;;;;;;5073427;28;20421;-54
2021/12/26 05:47:18;;;;;;;7.47;2.50;;;26.10;90.80;;;;;;5073816;28;20044;-58
2021/12/26 05:49:45;;;;;;;5.50;2.10;;;26.10;90.80;;;;;;5073479;28;20032;-59
2021/12/26 05:52:13;;;;;;;9.05;2.58;;;26.00;90.80;;;;;;5073664;28;20021;-59
2021/12/26 05:54:51;;;;;;;6.75;2.85;;;26.00;90.80;;;;;;5073434;28;20048;-58
2021/12/26 05:57:22;;;;;;;7.43;2.60;;;26.00;90.80;;;;;;5071801;28;20031;-54
2021/12/26 05:59:50;;;;;;;7.05;2.63;;;26.00;90.90;;;;;;5073985;28;20024;-56
2021/12/26 06:02:18;;;;;;;7.65;3.05;;;26.00;90.90;;;;;;5073949;28;20028;-56
2021/12/26 06:04:45;;;;;;;6.10;2.45;;;26.00;91.00;;;;;;5073829;28;20020;-53
2021/12/26 06:07:19;;;;;;;6.22;2.33;;;25.90;90.90;;;;;;5073614;28;20040;-62
2021/12/26 06:09:47;;;;;;;9.32;3.08;;;25.90;91.00;;;;;;5073875;28;20046;-58
2021/12/26 06:12:16;;;;;;;5.72;2.33;;;25.90;91.00;;;;;;5073088;28;20062;-52
2021/12/26 06:14:44;;;;;;;6.50;2.80;;;25.90;91.10;;;;;;5073794;28;20052;-61
2021/12/26 06:17:11;;;;;;;7.93;3.00;;;25.80;91.00;;;;;;5071810;28;20029;-56
2021/12/26 06:19:39;;;;;;;8.40;2.50;;;25.80;91.10;;;;;;5073501;28;20428;-58
2021/12/26 06:22:07;;;;;;;6.75;2.40;;;25.80;91.20;;;;;;5072624;28;20474;-60
2021/12/26 06:24:36;;;;;;;6.93;2.80;;;25.80;91.20;;;;;;5072805;28;20032;-60
2021/12/26 06:27:03;;;;;;;4.90;2.30;;;25.70;91.20;;;;;;5073358;28;20100;-59
2021/12/26 06:29:31;;;;;;;6.05;2.72;;;25.70;91.30;;;;;;5073218;28;20032;-60
2021/12/26 06:31:58;;;;;;;6.82;2.85;;;25.70;91.40;;;;;;5073436;28;20478;-58
2021/12/26 06:34:26;;;;;;;6.43;2.35;;;25.70;91.40;;;;;;5073572;28;20499;-59
2021/12/26 06:36:54;;;;;;;8.45;2.65;;;25.60;91.40;;;;;;5072742;28;20101;-59
2021/12/26 06:39:21;;;;;;;6.18;2.40;;;25.60;91.50;;;;;;5055500;28;20029;-58
2021/12/26 06:41:48;;;;;;;6.55;2.65;;;25.60;91.50;;;;;;5073240;28;20021;-59
2021/12/26 06:44:25;;;;;;;5.47;2.42;;;25.50;91.50;;;;;;5072791;28;20032;-55
2021/12/26 06:46:56;;;;;;;4.57;2.38;;;25.50;91.50;;;;;;5073613;28;20027;-59
2021/12/26 06:49:23;;;;;;;4.60;2.53;;;25.50;91.60;;;;;;5073560;28;20060;-60
2021/12/26 06:51:52;;;;;;;6.03;2.55;;;25.50;91.70;;;;;;5072922;28;20090;-58
2021/12/26 06:54:19;;;;;;;3.72;2.08;;;25.40;91.60;;;;;;5071667;28;20518;-47
2021/12/26 06:56:47;;;;;;;6.28;2.80;;;25.40;91.70;;;;;;5073072;28;20024;-53
2021/12/26 06:59:14;;;;;;;6.63;2.70;;;25.30;91.70;;;;;;5072780;28;20031;-54
2021/12/26 07:01:41;;;;;;;4.97;2.30;;;25.30;91.70;;;;;;5072859;28;20029;-53
2021/12/26 07:04:09;;;;;;;6.63;2.92;;;25.30;91.70;;;;;;5072699;28;20086;-54
2021/12/26 07:06:36;;;;;;;6.32;2.80;;;25.30;91.90;;;;;;5072589;28;20025;-53
2021/12/26 07:09:04;;;;;;;6.07;2.75;;;25.20;91.80;;;;;;5072705;28;20032;-58
2021/12/26 07:11:32;;;;;;;6.72;2.40;;;25.20;91.90;;;;;;5072524;28;20111;-55
2021/12/26 07:13:59;;;;;;;6.03;2.38;;;25.20;92.00;;;;;;5072436;28;20017;-53
2021/12/26 07:16:27;;;;;;;6.07;2.50;;;25.10;91.90;;;;;;5072511;28;20546;-59
2021/12/26 07:18:54;;;;;;;6.30;2.63;;;25.10;91.90;;;;;;5071272;28;20097;-56
2021/12/26 07:21:22;;;;;;;5.90;2.50;;;25.10;91.90;;;;;;5072552;28;20099;-59
2021/12/26 07:23:49;;;;;;;5.50;2.45;;;25.10;91.90;;;;;;5072229;28;20021;-55
2021/12/26 07:26:17;;;;;;;5.88;2.45;;;25.00;92.00;;;;;;5072417;28;20390;-57
2021/12/26 07:28:45;;;;;;;4.70;2.33;;;25.00;91.90;;;;;;5072744;28;20044;-58
2021/12/26 07:31:12;;;;;;;6.07;2.45;;;25.00;92.00;;;;;;5072836;28;20028;-54
2021/12/26 07:33:40;;;;;;;5.65;2.30;;;25.00;91.90;;;;;;5073028;28;20039;-57
2021/12/26 07:36:07;;;;;;;4.75;2.13;;;25.00;92.00;;;;;;5071216;28;20035;-61
2021/12/26 07:38:35;;;;;;;5.30;2.90;;;25.00;92.00;;;;;;5075845;28;20032;-52
2021/12/26 07:41:02;;;;;;;5.07;2.20;;;24.90;91.90;;;;;;5075859;28;20021;-52
2021/12/26 07:43:30;;;;;;;5.65;2.42;;;24.90;92.00;;;;;;5076282;28;20036;-57
2021/12/26 07:45:57;;;;;;;5.72;2.50;;;24.90;91.90;;;;;;5076159;28;20027;-56
2021/12/26 07:48:25;;;;;;;4.65;2.35;;;24.90;91.90;;;;;;5076092;28;20110;-53
2021/12/26 07:50:52;;;;;;;3.80;1.92;;;24.80;91.80;;;;;;5074567;28;20029;-57
2021/12/26 07:53:19;;;;;;;5.55;2.22;;;24.80;91.80;;;;;;5074713;28;20024;-58
2021/12/26 07:55:47;;;;;;;5.93;2.20;;;24.80;91.80;;;;;;5075986;28;20024;-56
2021/12/26 07:58:16;;;;;;;4.57;2.08;;;24.80;91.90;;;;;;5075647;28;20024;-60
2021/12/26 08:00:44;;;;;;;4.93;2.28;;;24.70;91.90;;;;;;5075611;28;20020;-58
2021/12/26 08:03:12;;;;;;;4.85;2.03;;;24.70;91.80;;;;;;5075627;28;20052;-61
2021/12/26 08:05:39;;;;;;;6.32;1.73;;;24.70;91.80;;;;;;5075498;28;20051;-60
2021/12/26 08:08:06;;;;;;;4.20;1.95;;;24.70;91.90;;;;;;5075079;28;20055;-58
2021/12/26 08:10:34;;;;;;;4.35;2.58;;;24.70;91.90;;;;;;5075236;28;20021;-59
2021/12/26 08:13:02;;;;;;;4.13;1.88;;;24.60;92.00;;;;;;5075297;28;20024;-58
2021/12/26 08:15:30;;;;;;;4.88;2.15;;;24.60;92.00;;;;;;5075098;28;20021;-54
2021/12/26 08:17:58;;;;;;;4.20;1.90;;;24.60;92.00;;;;;;5074956;28;20028;-54
2021/12/26 08:20:25;;;;;;;6.88;2.35;;;24.60;92.00;;;;;;5075673;28;20017;-57
2021/12/26 08:22:52;;;;;;;4.68;1.85;;;24.60;92.10;;;;;;5075022;28;20080;-57
2021/12/26 08:25:20;;;;;;;4.13;1.92;;;24.50;92.00;;;;;;5075367;28;20070;-52
2021/12/26 08:27:47;;;;;;;5.93;1.98;;;24.50;92.10;;;;;;5073508;28;20097;-58
2021/12/26 08:30:15;;;;;;;5.80;2.20;;;24.50;92.10;;;;;;5074819;28;20104;-54
2021/12/26 08:32:43;;;;;;;5.22;1.88;;;24.50;92.10;;;;;;5075054;28;20052;-58
2021/12/26 08:35:11;;;;;;;3.22;1.52;;;24.50;92.10;;;;;;5075150;28;20024;-57
2021/12/26 08:37:40;;;;;;;3.55;1.98;;;24.50;92.00;;;;;;5074846;28;20029;-58
2021/12/26 08:40:08;;;;;;;6.30;1.83;;;24.40;92.10;;;;;;5074618;28;20025;-51
2021/12/26 08:42:36;;;;;;;3.60;1.88;;;24.40;92.00;;;;;;5074772;28;20024;-58
2021/12/26 08:45:04;;;;;;;3.15;1.75;;;24.40;92.20;;;;;;5074650;28;20099;-57
2021/12/26 08:47:31;;;;;;;4.32;1.75;;;24.40;92.00;;;;;;5074888;28;20040;-57
2021/12/26 08:49:59;;;;;;;9.00;2.30;;;24.30;92.10;;;;;;5074534;28;20031;-57
2021/12/26 08:52:26;;;;;;;5.93;2.35;;;24.40;92.10;;;;;;5074539;28;20048;-51
2021/12/26 08:54:54;;;;;;;3.95;1.60;;;24.30;92.10;;;;;;5074850;28;20135;-50
2021/12/26 08:57:21;;;;;;;5.05;1.85;;;24.30;92.20;;;;;;5074623;28;20029;-56
2021/12/26 08:59:49;;;;;;;4.65;2.00;;;24.30;92.10;;;;;;5073074;28;20111;-58
2021/12/26 09:02:16;;;;;;;2.92;1.65;;;24.30;92.40;;;;;;5074302;28;20052;-59
2021/12/26 09:04:44;;;;;;;4.47;1.98;;;24.30;92.10;;;;;;5074463;28;20380;-55
2021/12/26 09:07:12;;;;;;;3.40;1.58;;;24.30;92.10;;;;;;5073920;28;20119;-54
2021/12/26 09:09:39;;;;;;;4.80;1.65;;;24.30;92.10;;;;;;5073982;28;20038;-55
2021/12/26 09:12:08;;;;;;;4.55;2.05;;;24.30;92.20;;;;;;5074256;28;20085;-58
2021/12/26 09:14:36;;;;;;;7.20;2.08;;;24.30;92.10;;;;;;5074164;28;20028;-54
2021/12/26 09:17:04;;;;;;;4.03;1.80;;;24.30;92.10;;;;;;5074092;28;20016;-58
2021/12/26 09:19:32;;;;;;;4.07;1.63;;;24.30;92.10;;;;;;5073117;28;20028;-54
2021/12/26 09:22:02;;;;;;;3.47;1.55;;;24.30;92.00;;;;;;5073682;28;20554;-58
2021/12/26 09:24:30;;;;;;;4.13;1.90;;;24.30;92.00;;;;;;5074047;28;20390;-55
2021/12/26 09:26:58;;;;;;;4.28;1.70;;;24.30;92.00;;;;;;5072689;28;20088;-50
2021/12/26 09:29:26;;;;;;;2.67;1.67;;;24.30;92.00;;;;;;5073651;28;20485;-55
2021/12/26 09:31:54;;;;;;;4.53;1.83;;;24.30;91.90;;;;;;5073835;28;20021;-54
2021/12/26 09:34:21;;;;;;;3.50;1.52;;;24.30;91.90;;;;;;5073944;28;20039;-58
2021/12/26 09:36:49;;;;;;;5.07;1.88;;;24.30;92.00;;;;;;5072602;28;20024;-57
2021/12/26 09:39:17;;;;;;;3.90;1.60;;;24.30;91.90;;;;;;5073715;28;20154;-60
2021/12/26 09:41:45;;;;;;;3.97;1.42;;;24.30;91.90;;;;;;5073722;28;20035;-57
2021/12/26 09:44:12;;;;;;;3.95;1.63;;;24.20;91.90;;;;;;5073598;28;20040;-57
2021/12/26 09:46:40;;;;;;;4.25;1.77;;;24.30;91.90;;;;;;5073911;28;20345;-60
2021/12/26 09:49:07;;;;;;;4.50;1.60;;;24.20;91.80;;;;;;5073920;28;20029;-54
2021/12/26 09:51:35;;;;;;;5.65;1.83;;;24.30;91.80;;;;;;5073446;28;20360;-60
2021/12/26 09:54:03;;;;;;;3.50;1.65;;;24.30;91.80;;;;;;5073137;28;20067;-57
2021/12/26 09:56:31;;;;;;;3.60;1.50;;;24.30;91.80;;;;;;5073502;28;20025;-60
2021/12/26 09:59:19;;;;;;;3.50;2.05;;;24.20;91.70;;;;;;5073580;28;20025;-51
2021/12/26 10:01:51;;;;;;;4.10;1.83;;;24.30;91.70;;;;;;5074054;28;20025;-59
2021/12/26 10:04:28;;;;;;;3.83;1.80;;;24.30;91.80;;;;;;5072676;28;20119;-56
2021/12/26 10:07:20;;;;;;;3.17;1.60;;;24.30;91.70;;;;;;5073327;28;20029;-53
2021/12/26 10:09:50;;;;;;;3.58;1.55;;;24.20;91.70;;;;;;5068843;28;20036;-59
2021/12/26 10:12:20;;;;;;;4.55;2.20;;;24.30;91.70;;;;;;5073659;28;20021;-55
2021/12/26 10:14:53;;;;;;;3.80;1.60;;;24.20;91.60;;;;;;5073409;28;20020;-57
2021/12/26 10:17:27;;;;;;;6.60;2.33;;;24.20;91.70;;;;;;5073769;28;20017;-59
2021/12/26 10:20:04;;;;;;;5.18;1.73;;;24.20;91.70;;;;;;5073268;28;20082;-56
2021/12/26 10:22:32;;;;;;;4.43;1.67;;;24.20;91.70;;;;;;5073530;28;20025;-56
2021/12/26 10:24:59;;;;;;;3.83;1.50;;;24.20;91.60;;;;;;5073461;28;20025;-58
2021/12/26 10:27:31;;;;;;;3.65;1.70;;;24.20;91.70;;;;;;5073306;28;20028;-61
2021/12/26 10:30:02;;;;;;;4.50;1.50;;;24.20;91.60;;;;;;5073060;28;20414;-55
2021/12/26 10:32:32;;;;;;;3.70;1.40;;;24.20;91.60;;;;;;5072965;28;20096;-59
2021/12/26 10:35:08;;;;;;;5.45;1.90;;;24.20;91.60;;;;;;5071271;28;20444;-58
2021/12/26 10:37:54;;;;;;;2.53;1.38;;;24.20;91.80;;;;;;5072777;28;20400;-57
2021/12/26 10:40:24;;;;;;;4.75;1.70;;;24.20;91.50;;;;;;5071696;28;20096;-56
2021/12/26 10:43:01;;;;;;;4.88;1.35;;;24.20;91.50;;;;;;5073016;28;20078;-59
2021/12/26 10:45:30;;;;;;;3.72;1.55;;;24.20;91.50;;;;;;5073026;28;20429;-56
2021/12/26 10:48:06;;;;;;;2.53;1.25;;;24.20;91.50;;;;;;5071072;28;20128;-59
2021/12/26 10:50:38;;;;;;;3.13;1.45;;;24.20;91.50;;;;;;5072810;28;20382;-58
2021/12/26 10:53:08;;;;;;;2.28;1.25;;;24.20;91.50;;;;;;5072695;28;20039;-52
2021/12/26 10:55:38;;;;;;;4.00;1.48;;;24.20;91.50;;;;;;5072925;28;20383;-55
2021/12/26 10:58:09;;;;;;;4.80;1.40;;;24.20;91.50;;;;;;5072903;28;20103;-54
2021/12/26 11:00:43;;;;;;;2.45;1.20;;;24.20;91.50;;;;;;5072701;28;20035;-50
2021/12/26 11:03:22;;;;;;;3.35;1.83;;;24.20;91.40;;;;;;5072890;28;20017;-56
2021/12/26 11:05:53;;;;;;;3.83;1.52;;;24.20;91.50;;;;;;5071120;28;20071;-55
2021/12/26 11:08:35;;;;;;;2.47;1.10;;;24.20;91.50;;;;;;5072562;28;20033;-57
2021/12/26 11:11:16;;;;;;;3.05;1.30;;;24.20;91.50;;;;;;5072017;28;20064;-50
2021/12/26 11:13:45;;;;;;;5.63;1.70;;;24.20;91.40;;;;;;5076412;28;20028;-58
2021/12/26 11:16:15;;;;;;;2.42;1.20;;;24.20;91.40;;;;;;5076497;28;20028;-52
2021/12/26 11:18:43;;;;;;;3.75;1.65;;;24.20;91.40;;;;;;5075370;28;20028;-57
2021/12/26 11:21:14;;;;;;;2.22;1.13;;;24.20;91.40;;;;;;5076026;28;20024;-55
2021/12/26 11:23:44;;;;;;;3.63;1.50;;;24.20;91.40;;;;;;5076372;28;20024;-60
2021/12/26 11:26:11;;;;;;;4.30;1.50;;;24.20;91.40;;;;;;5076543;28;20032;-57
2021/12/26 11:28:47;;;;;;;4.45;2.25;;;24.10;91.40;;;;;;5076685;28;20040;-60
2021/12/26 11:31:18;;;;;;;3.88;1.33;;;24.10;91.40;;;;;;5076526;28;20356;-51
2021/12/26 11:33:49;;;;;;;3.95;1.52;;;24.10;91.50;;;;;;5076373;28;20474;-59
2021/12/26 11:36:24;;;;;;;1.92;1.00;;;24.10;91.50;;;;;;5076086;28;20028;-55
2021/12/26 11:38:54;;;;;;;6.30;1.88;;;24.00;91.60;;;;;;5074917;28;20024;-58
2021/12/26 11:41:43;;;;;;;3.22;1.70;;;24.00;91.60;;;;;;5076654;28;20153;-59
2021/12/26 11:44:28;;;;;;;4.13;1.52;;;24.00;91.60;;;;;;5076018;28;20044;-59
2021/12/26 11:47:13;;;;;;;5.47;1.95;;;24.00;91.70;;;;;;5075978;28;20454;-58
2021/12/26 11:49:53;;;;;;;3.38;1.42;;;23.90;91.70;;;;;;5076010;28;20036;-59
2021/12/26 11:52:37;;;;;;;4.32;1.55;;;23.90;91.80;;;;;;5076029;28;20394;-55
2021/12/26 11:55:41;;;;;;;4.82;1.98;;;23.90;91.90;;;;;;5075965;28;20136;-60
2021/12/26 11:58:47;;;;;;;4.50;1.60;;;23.80;91.90;;;;;;5035377;28;20137;-59
2021/12/26 12:01:17;;;;;;;4.00;1.60;;;23.70;91.90;;;;;;5075771;28;20036;-58
2021/12/26 12:03:44;;;;;;;4.05;1.30;;;23.70;92.00;;;;;;5076040;28;20060;-60
2021/12/26 12:06:27;;;;;;;3.58;1.48;;;23.70;92.10;;;;;;5075444;28;20378;-57
2021/12/26 12:08:56;;;;;;;2.97;1.42;;;23.70;92.10;;;;;;5075675;28;20504;-57
2021/12/26 12:11:23;;;;;;;5.22;1.65;;;23.70;92.10;;;;;;5075575;28;20017;-53
2021/12/26 12:13:54;;;;;;;4.05;1.65;;;23.70;92.20;;;;;;5075602;28;20509;-52
2021/12/26 12:16:24;;;;;;;3.13;1.60;;;23.60;92.20;;;;;;5075603;28;20475;-57
2021/12/26 12:18:54;;;;;;;5.65;1.60;;;23.60;92.30;;;;;;5075563;28;20024;-55
2021/12/26 12:21:24;;;;;;;6.15;1.88;;;23.60;92.30;;;;;;5075403;28;20024;-51
2021/12/26 12:24:02;;;;;;;5.90;2.10;;;23.60;92.30;;;;;;5074958;28;20052;-53
2021/12/26 12:26:54;;;;;;;2.72;1.40;;;23.60;92.30;;;;;;5075347;28;20021;-60
2021/12/26 12:29:32;;;;;;;3.47;1.45;;;23.50;92.30;;;;;;5075206;28;20036;-60
2021/12/26 12:32:08;;;;;;;5.80;1.80;;;23.50;92.40;;;;;;5074099;28;20036;-59
2021/12/26 12:34:51;;;;;;;3.30;1.33;;;23.50;92.40;;;;;;5074998;28;20029;-60
2021/12/26 12:37:40;;;;;;;4.20;1.80;;;23.50;92.40;;;;;;5075306;28;20025;-53
2021/12/26 12:40:29;;;;;;;4.60;1.73;;;23.50;92.40;;;;;;5075193;28;20398;-60
2021/12/26 12:43:01;;;;;;;3.65;1.33;;;23.50;92.40;;;;;;5073730;28;20070;-59
2021/12/26 12:45:29;;;;;;;2.95;1.45;;;23.50;92.40;;;;;;5074053;28;20378;-59
2021/12/26 12:48:24;;;;;;;4.30;1.75;;;23.50;92.40;;;;;;5074703;28;20109;-59
2021/12/26 12:51:18;;;;;;;3.70;1.63;;;23.50;92.30;;;;;;5074696;28;20028;-61
2021/12/26 12:53:46;;;;;;;3.75;1.55;;;23.40;92.50;;;;;;5074479;28;20060;-59
2021/12/26 12:56:36;;;;;;;4.22;1.20;;;23.40;92.40;;;;;;5074633;28;20078;-58
2021/12/26 12:59:20;;;;;;;4.32;1.80;;;23.40;92.40;;;;;;5074800;28;20134;-60
2021/12/26 13:01:50;;;;;;;3.38;1.30;;;23.40;92.40;;;;;;5074893;28;20021;-59
2021/12/26 13:04:24;;;;;;;3.40;1.50;;;23.40;92.40;;;;;;5074045;28;20104;-60
2021/12/26 13:06:54;;;;;;;3.30;1.50;;;23.40;92.40;;;;;;5074279;28;20035;-61
2021/12/26 13:09:23;;;;;;;4.78;1.80;;;23.40;92.40;;;;;;5074628;28;20032;-59